Time,TemperatureF,DewpointF,PressureIn,WindDirection,WindDirectionDegrees,WindSpeedMPH,WindSpeedGustMPH,Humidity,HourlyPrecipIn,Conditions,Clouds,dailyrainin,SolarRadiationWatts/m^2,SoftwareType,DateUTC
2013-01-23 00:00:00,3.0,-4.0,-100.00,WSW,247,7.0,-999.0,69,-99.99,,,-99.99,0.000000,,2013-01-23 05:00:00,
2013-01-23 00:33:00,3.0,-4.0,-100.00,WSW,247,7.0,-999.0,69,-99.99,,,-99.99,0.000000,,2013-01-23 05:33:00,
2013-01-23 00:43:00,3.0,-4.0,-100.00,WSW,247,7.0,-999.0,69,-99.99,,,-99.99,0.000000,,2013-01-23 05:43:00,
2013-01-23 00:53:00,3.0,-4.0,-100.00,WSW,247,7.0,-999.0,69,-99.99,,,-99.99,0.000000,,2013-01-23 05:53:00,
2013-01-23 01:00:00,3.0,-4.0,-100.00,WSW,247,8.0,-999.0,72,-99.99,,,-99.99,0.000000,,2013-01-23 06:00:00,
2013-01-23 01:43:00,3.0,-4.0,-100.00,WSW,247,8.0,-999.0,72,-99.99,,,-99.99,0.000000,,2013-01-23 06:43:00,
2013-01-23 01:53:00,3.0,-4.0,-100.00,WSW,247,8.0,-999.0,72,-99.99,,,-99.99,0.000000,,2013-01-23 06:53:00,
2013-01-23 02:00:00,3.0,-3.0,-100.00,WSW,247,8.0,-999.0,74,-99.99,,,-99.99,0.000000,,2013-01-23 07:00:00,
2013-01-23 02:33:00,3.0,-3.0,-100.00,WSW,247,8.0,-999.0,74,-99.99,,,-99.99,0.000000,,2013-01-23 07:33:00,
2013-01-23 02:43:00,3.0,-3.0,-100.00,WSW,247,8.0,-999.0,74,-99.99,,,-99.99,0.000000,,2013-01-23 07:43:00,
2013-01-23 02:53:00,3.0,-3.0,-100.00,WSW,247,8.0,-999.0,74,-99.99,,,-99.99,0.000000,,2013-01-23 07:53:00,
2013-01-23 03:00:00,4.0,-2.0,-100.00,WSW,247,8.0,-999.0,75,-99.99,,,-99.99,0.000000,,2013-01-23 08:00:00,
2013-01-23 03:43:00,4.0,-2.0,-100.00,WSW,247,8.0,-999.0,75,-99.99,,,-99.99,0.000000,,2013-01-23 08:43:00,
2013-01-23 03:53:00,4.0,-2.0,-100.00,WSW,247,8.0,-999.0,75,-99.99,,,-99.99,0.000000,,2013-01-23 08:53:00,
2013-01-23 04:00:00,5.0,-2.0,-100.00,WSW,247,10.0,-999.0,74,-99.99,,,-99.99,0.000000,,2013-01-23 09:00:00,
2013-01-23 04:43:00,5.0,-2.0,-100.00,WSW,247,10.0,-999.0,74,-99.99,,,-99.99,0.000000,,2013-01-23 09:43:00,
2013-01-23 04:53:00,5.0,-2.0,-100.00,WSW,247,10.0,-999.0,74,-99.99,,,-99.99,0.000000,,2013-01-23 09:53:00,
2013-01-23 05:00:00,4.0,-2.0,-100.00,WSW,247,9.0,-999.0,76,-99.99,,,-99.99,0.000000,,2013-01-23 10:00:00,
2013-01-23 05:43:00,4.0,-2.0,-100.00,WSW,247,9.0,-999.0,76,-99.99,,,-99.99,0.000000,,2013-01-23 10:43:00,
2013-01-23 05:53:00,4.0,-2.0,-100.00,WSW,247,9.0,-999.0,76,-99.99,,,-99.99,0.000000,,2013-01-23 10:53:00,
2013-01-23 06:00:00,3.0,-2.0,-100.00,SW,225,7.0,-999.0,78,-99.99,,,-99.99,0.000000,,2013-01-23 11:00:00,
2013-01-23 06:43:00,3.0,-2.0,-100.00,SW,225,7.0,-999.0,78,-99.99,,,-99.99,0.000000,,2013-01-23 11:43:00,
2013-01-23 06:53:00,3.0,-2.0,-100.00,SW,225,7.0,-999.0,78,-99.99,,,-99.99,0.000000,,2013-01-23 11:53:00,
2013-01-23 07:00:00,3.0,-2.0,-100.00,SSW,202,5.0,-999.0,79,-99.99,,,-99.99,0.000000,,2013-01-23 12:00:00,
2013-01-23 07:43:00,3.0,-2.0,-100.00,SSW,202,5.0,-999.0,79,-99.99,,,-99.99,0.000000,,2013-01-23 12:43:00,
2013-01-23 07:53:00,3.0,-2.0,-100.00,SSW,202,5.0,-999.0,79,-99.99,,,-99.99,0.000000,,2013-01-23 12:53:00,
2013-01-23 08:00:00,3.0,-2.0,-100.00,SSW,202,7.0,-999.0,79,-99.99,,,-99.99,1.160000,,2013-01-23 13:00:00,
2013-01-23 08:34:00,3.0,-2.0,-100.00,SSW,202,7.0,-999.0,79,-99.99,,,-99.99,1.160000,,2013-01-23 13:34:00,
2013-01-23 08:43:00,3.0,-2.0,-100.00,SSW,202,7.0,-999.0,79,-99.99,,,-99.99,1.160000,,2013-01-23 13:43:00,
2013-01-23 08:53:00,3.0,-2.0,-100.00,SSW,202,7.0,-999.0,79,-99.99,,,-99.99,1.160000,,2013-01-23 13:53:00,
2013-01-23 09:00:00,4.0,-1.0,-100.00,SSW,202,8.0,-999.0,78,-99.99,,,-99.99,27.840000,,2013-01-23 14:00:00,
2013-01-23 09:43:00,4.0,-1.0,-100.00,SSW,202,8.0,-999.0,78,-99.99,,,-99.99,27.840000,,2013-01-23 14:43:00,
2013-01-23 09:53:00,4.0,-1.0,-100.00,SSW,202,8.0,-999.0,78,-99.99,,,-99.99,27.840000,,2013-01-23 14:53:00,
2013-01-23 10:00:00,7.0,1.0,-100.00,SSW,202,9.0,-999.0,75,-99.99,,,-99.99,109.040001,,2013-01-23 15:00:00,
2013-01-23 10:43:00,7.0,1.0,-100.00,SSW,202,9.0,-999.0,75,-99.99,,,-99.99,109.040001,,2013-01-23 15:43:00,
2013-01-23 10:53:00,7.0,1.0,-100.00,SSW,202,9.0,-999.0,75,-99.99,,,-99.99,109.040001,,2013-01-23 15:53:00,
2013-01-23 11:00:00,9.0,4.0,-100.00,SSW,202,12.0,-999.0,78,-99.99,,,-99.99,221.559998,,2013-01-23 16:00:00,
2013-01-23 11:33:00,9.0,4.0,-100.00,SSW,202,12.0,-999.0,78,-99.99,,,-99.99,221.559998,,2013-01-23 16:33:00,
2013-01-23 11:43:00,9.0,4.0,-100.00,SSW,202,12.0,-999.0,78,-99.99,,,-99.99,221.559998,,2013-01-23 16:43:00,
2013-01-23 11:53:00,9.0,4.0,-100.00,SSW,202,12.0,-999.0,78,-99.99,,,-99.99,221.559998,,2013-01-23 16:53:00,
2013-01-23 12:00:00,11.0,4.0,-100.00,SSW,202,11.0,-999.0,72,-99.99,,,-99.99,266.799988,,2013-01-23 17:00:00,
2013-01-23 12:43:00,11.0,4.0,-100.00,SSW,202,11.0,-999.0,72,-99.99,,,-99.99,266.799988,,2013-01-23 17:43:00,
2013-01-23 12:53:00,11.0,4.0,-100.00,SSW,202,11.0,-999.0,72,-99.99,,,-99.99,266.799988,,2013-01-23 17:53:00,
2013-01-23 13:00:00,13.0,4.0,-100.00,SW,225,10.0,-999.0,65,-99.99,,,-99.99,264.480011,,2013-01-23 18:00:00,
2013-01-23 13:24:00,13.0,4.0,-100.00,SW,225,10.0,-999.0,65,-99.99,,,-99.99,264.480011,,2013-01-23 18:24:00,
2013-01-23 13:33:00,13.0,4.0,-100.00,SW,225,10.0,-999.0,65,-99.99,,,-99.99,264.480011,,2013-01-23 18:33:00,
2013-01-23 13:44:00,13.0,4.0,-100.00,SW,225,10.0,-999.0,65,-99.99,,,-99.99,264.480011,,2013-01-23 18:44:00,
2013-01-23 13:53:00,13.0,4.0,-100.00,SW,225,10.0,-999.0,65,-99.99,,,-99.99,264.480011,,2013-01-23 18:53:00,
2013-01-23 14:00:00,14.0,6.0,-100.00,SW,225,11.0,-999.0,68,-99.99,,,-99.99,184.440002,,2013-01-23 19:00:00,
2013-01-23 14:43:00,14.0,6.0,-100.00,SW,225,11.0,-999.0,68,-99.99,,,-99.99,184.440002,,2013-01-23 19:43:00,
2013-01-23 14:53:00,14.0,6.0,-100.00,SW,225,11.0,-999.0,68,-99.99,,,-99.99,184.440002,,2013-01-23 19:53:00,
2013-01-23 16:00:00,15.0,11.0,-100.00,SW,225,8.0,-999.0,83,-99.99,,,-99.99,162.399994,,2013-01-23 21:00:00,
2013-01-23 16:43:00,15.0,11.0,-100.00,SW,225,8.0,-999.0,83,-99.99,,,-99.99,162.399994,,2013-01-23 21:43:00,
2013-01-23 16:53:00,15.0,11.0,-100.00,SW,225,8.0,-999.0,83,-99.99,,,-99.99,162.399994,,2013-01-23 21:53:00,
2013-01-23 17:00:00,15.0,10.0,-100.00,SW,225,7.0,-999.0,83,-99.99,,,-99.99,67.279999,,2013-01-23 22:00:00,
2013-01-23 17:43:00,15.0,10.0,-100.00,SW,225,7.0,-999.0,83,-99.99,,,-99.99,67.279999,,2013-01-23 22:43:00,
2013-01-23 17:53:00,15.0,10.0,-100.00,SW,225,7.0,-999.0,83,-99.99,,,-99.99,67.279999,,2013-01-23 22:53:00,
2013-01-23 18:00:00,15.0,9.0,-100.00,WSW,247,7.0,-999.0,78,-99.99,,,-99.99,8.120000,,2013-01-23 23:00:00,
2013-01-23 18:43:00,15.0,9.0,-100.00,WSW,247,7.0,-999.0,78,-99.99,,,-99.99,8.120000,,2013-01-23 23:43:00,
2013-01-23 18:53:00,15.0,9.0,-100.00,WSW,247,7.0,-999.0,78,-99.99,,,-99.99,8.120000,,2013-01-23 23:53:00,
2013-01-23 19:00:00,14.0,10.0,-100.00,WSW,247,4.0,-999.0,84,-99.99,,,-99.99,0.000000,,2013-01-24 00:00:00,
2013-01-23 19:43:00,14.0,10.0,-100.00,WSW,247,4.0,-999.0,84,-99.99,,,-99.99,0.000000,,2013-01-24 00:43:00,
2013-01-23 19:53:00,14.0,10.0,-100.00,WSW,247,4.0,-999.0,84,-99.99,,,-99.99,0.000000,,2013-01-24 00:53:00,
2013-01-23 20:00:00,14.0,11.0,-100.00,SSW,202,1.0,-999.0,88,-99.99,,,-99.99,0.000000,,2013-01-24 01:00:00,
2013-01-23 20:43:00,14.0,11.0,-100.00,SSW,202,1.0,-999.0,88,-99.99,,,-99.99,0.000000,,2013-01-24 01:43:00,
2013-01-23 20:53:00,14.0,11.0,-100.00,SSW,202,1.0,-999.0,88,-99.99,,,-99.99,0.000000,,2013-01-24 01:53:00,
2013-01-23 21:00:00,13.0,11.0,-100.00,NNE,22,3.0,-999.0,90,-99.99,,,-99.99,0.000000,,2013-01-24 02:00:00,
2013-01-23 22:00:00,13.0,11.0,-100.00,ENE,67,5.0,-999.0,90,-99.99,,,-99.99,0.000000,,2013-01-24 03:00:00,
2013-01-23 22:43:00,13.0,11.0,-100.00,ENE,67,5.0,-999.0,90,-99.99,,,-99.99,0.000000,,2013-01-24 03:43:00,
2013-01-23 22:53:00,13.0,11.0,-100.00,ENE,67,5.0,-999.0,90,-99.99,,,-99.99,0.000000,,2013-01-24 03:53:00,
2013-01-23 23:00:00,12.0,10.0,-100.00,NW,315,2.0,-999.0,89,-99.99,,,-99.99,0.000000,,2013-01-24 04:00:00,
2013-01-23 23:43:00,12.0,10.0,-100.00,NW,315,2.0,-999.0,89,-99.99,,,-99.99,0.000000,,2013-01-24 04:43:00,
2013-01-23 23:53:00,12.0,10.0,-100.00,NW,315,2.0,-999.0,89,-99.99,,,-99.99,0.000000,,2013-01-24 04:53:00,